createdAt,value
2019-05-07T00:01:52.475Z,7.50
2019-05-07T00:04:22.439Z,9.78
2019-05-07T00:06:52.804Z,7.28
2019-05-07T00:09:23.344Z,8.88
2019-05-07T00:11:53.468Z,6.05
2019-05-07T00:14:24.680Z,11.35
2019-05-07T00:16:54.056Z,8.28
2019-05-07T00:19:24.474Z,8.65
2019-05-07T00:21:54.115Z,8.23
2019-05-07T00:24:23.497Z,7.45
2019-05-07T00:26:53.347Z,7.72
2019-05-07T00:29:22.935Z,7.42
2019-05-07T00:31:52.320Z,7.53
2019-05-07T00:34:24.483Z,8.63
2019-05-07T00:37:07.297Z,7.72
2019-05-07T00:39:53.639Z,10.50
2019-05-07T00:42:33.543Z,9.05
2019-05-07T00:45:17.076Z,7.90
2019-05-07T00:47:38.868Z,7.92
2019-05-07T00:52:47.274Z,11.30
2019-05-07T00:55:17.749Z,10.60
2019-05-07T00:57:47.224Z,7.58
2019-05-07T01:00:16.832Z,8.83
2019-05-07T01:02:46.287Z,7.97
2019-05-07T01:05:15.678Z,9.03
2019-05-07T01:07:45.079Z,9.53
2019-05-07T01:10:14.803Z,11.83
2019-05-07T01:12:44.211Z,8.20
2019-05-07T01:15:27.142Z,7.08
2019-05-07T01:17:45.264Z,7.78
2019-05-07T01:20:14.717Z,9.83
2019-05-07T01:22:44.180Z,9.63
2019-05-07T01:25:13.763Z,7.03
2019-05-07T01:27:43.146Z,8.25
2019-05-07T01:30:13.511Z,7.37
2019-05-07T01:32:50.272Z,8.58
2019-05-07T01:35:28.281Z,7.80
2019-05-07T01:37:57.720Z,8.70
2019-05-07T01:40:27.103Z,7.50
2019-05-07T01:42:56.503Z,8.48
2019-05-07T01:45:25.882Z,8.65
2019-05-07T01:47:55.295Z,11.15
2019-05-07T01:50:24.665Z,8.53
2019-05-07T01:52:54.200Z,7.33
2019-05-07T01:55:23.567Z,7.22
2019-05-07T01:57:52.969Z,8.18
2019-05-07T02:00:22.557Z,10.98
2019-05-07T02:02:53.726Z,10.35
2019-05-07T02:05:27.461Z,8.65
2019-05-07T02:07:58.647Z,7.03
2019-05-07T02:10:38.663Z,7.53
2019-05-07T02:13:08.057Z,8.80
2019-05-07T02:15:37.507Z,9.93
2019-05-07T02:18:07.031Z,9.43
2019-05-07T02:20:37.032Z,8.40
2019-05-07T02:23:06.423Z,7.92
2019-05-07T02:25:35.815Z,11.03
2019-05-07T02:28:05.199Z,6.85
2019-05-07T02:30:35.373Z,7.00
2019-05-07T02:33:04.967Z,6.92
2019-05-07T02:35:35.595Z,7.08
2019-05-07T02:38:06.671Z,7.10
2019-05-07T02:40:43.131Z,6.95
2019-05-07T02:43:14.048Z,6.75
2019-05-07T02:45:56.222Z,7.90
2019-05-07T02:48:27.318Z,6.80
2019-05-07T02:51:13.129Z,10.50
2019-05-07T02:53:46.464Z,7.65
2019-05-07T02:56:18.398Z,9.03
2019-05-07T02:58:48.331Z,8.45
2019-05-07T03:01:17.800Z,7.05
2019-05-07T03:03:47.321Z,6.90
2019-05-07T03:06:17.724Z,9.38
2019-05-07T03:08:47.104Z,6.80
2019-05-07T03:11:16.471Z,8.38
2019-05-07T03:13:46.004Z,6.80
2019-05-07T03:16:15.455Z,9.10
2019-05-07T03:18:44.915Z,7.55
2019-05-07T03:21:18.326Z,7.00
2019-05-07T03:24:04.559Z,8.20
2019-05-07T03:26:35.640Z,7.30
2019-05-07T03:29:06.773Z,7.62
2019-05-07T03:31:46.329Z,8.83
2019-05-07T03:34:16.211Z,8.28
2019-05-07T03:36:55.782Z,9.50
2019-05-07T03:39:23.809Z,7.30
2019-05-07T03:41:53.183Z,6.45
2019-05-07T03:44:33.978Z,9.28
2019-05-07T03:47:23.502Z,7.37
2019-05-07T03:49:53.482Z,8.83
2019-05-07T03:52:24.407Z,9.63
2019-05-07T03:54:54.343Z,8.40
2019-05-07T03:57:24.151Z,6.47
2019-05-07T03:59:54.651Z,6.70
2019-05-07T04:02:24.276Z,7.55
2019-05-07T04:04:53.719Z,6.47
2019-05-07T04:07:23.539Z,8.45
2019-05-07T04:09:53.580Z,8.10
2019-05-07T04:12:23.996Z,8.60
2019-05-07T04:14:53.863Z,8.78
2019-05-07T04:17:27.002Z,7.03
2019-05-07T04:19:54.498Z,8.80
2019-05-07T04:22:28.621Z,8.30
2019-05-07T04:25:04.347Z,8.58
2019-05-07T04:27:47.075Z,8.13
2019-05-07T04:30:15.609Z,9.70
2019-05-07T04:32:46.661Z,8.38
2019-05-07T04:35:17.751Z,9.53
2019-05-07T04:37:47.163Z,9.25
2019-05-07T04:40:16.680Z,9.53
2019-05-07T04:42:59.616Z,9.83
2019-05-07T04:45:29.031Z,13.05
2019-05-07T04:47:58.498Z,9.35
2019-05-07T04:50:39.255Z,9.38
2019-05-07T04:53:03.301Z,12.78
2019-05-07T04:55:33.580Z,8.98
2019-05-07T04:58:08.504Z,14.10
2019-05-07T05:00:34.338Z,9.80
2019-05-07T05:03:05.427Z,11.03
2019-05-07T05:05:34.966Z,8.80
2019-05-07T05:08:04.610Z,12.88
2019-05-07T05:10:34.005Z,10.95
2019-05-07T05:13:03.486Z,11.12
2019-05-07T05:15:32.952Z,10.13
2019-05-07T05:18:02.806Z,11.20
2019-05-07T05:20:35.190Z,11.03
2019-05-07T05:23:06.223Z,10.00
2019-05-07T05:25:37.289Z,11.40
2019-05-07T05:28:06.683Z,8.03
2019-05-07T05:30:37.715Z,19.85
2019-05-07T05:33:07.196Z,11.20
2019-05-07T05:35:38.623Z,9.85
2019-05-07T05:38:08.118Z,9.38
2019-05-07T05:40:37.548Z,14.75
2019-05-07T05:43:12.723Z,12.68
2019-05-07T05:45:44.023Z,13.62
2019-05-07T05:48:13.767Z,15.63
2019-05-07T05:50:53.874Z,11.15
2019-05-07T05:53:27.586Z,15.10
2019-05-07T05:55:58.635Z,11.78
2019-05-07T05:58:29.680Z,11.78
2019-05-07T06:01:02.544Z,14.53
2019-05-07T06:03:43.089Z,14.15
2019-05-07T06:06:16.861Z,12.65
2019-05-07T06:09:04.423Z,13.35
2019-05-07T06:11:47.935Z,13.68
2019-05-07T06:14:22.275Z,12.10
2019-05-07T06:16:56.059Z,12.70
2019-05-07T06:19:29.690Z,14.05
2019-05-07T06:22:06.741Z,14.45
2019-05-07T06:24:37.784Z,13.35
2019-05-07T06:27:07.351Z,16.62
2019-05-07T06:29:36.727Z,14.83
2019-05-07T06:32:07.844Z,14.35
2019-05-07T06:34:37.324Z,19.48
2019-05-07T06:37:06.714Z,11.78
2019-05-07T06:39:37.972Z,13.93
2019-05-07T06:42:25.131Z,13.38
2019-05-07T06:45:12.422Z,11.63
2019-05-07T06:47:42.453Z,11.33
2019-05-07T06:50:12.607Z,17.12
2019-05-07T06:52:42.646Z,12.07
2019-05-07T06:55:13.939Z,17.12
2019-05-07T06:57:43.440Z,16.50
2019-05-07T07:00:17.741Z,10.53
2019-05-07T07:03:07.836Z,11.57
2019-05-07T07:05:38.939Z,12.45
2019-05-07T07:08:19.979Z,9.63
2019-05-07T07:10:52.144Z,14.80
2019-05-07T07:13:23.634Z,16.15
2019-05-07T07:15:53.085Z,11.28
2019-05-07T07:18:23.099Z,12.25
2019-05-07T07:20:52.636Z,12.60
2019-05-07T07:23:22.777Z,9.88
2019-05-07T07:25:52.347Z,10.23
2019-05-07T07:28:22.976Z,13.43
2019-05-07T07:30:56.496Z,10.32
2019-05-07T07:33:27.532Z,9.13
2019-05-07T07:35:57.350Z,9.63
2019-05-07T07:38:33.036Z,7.78
2019-05-07T07:41:22.262Z,9.13
2019-05-07T07:43:52.618Z,12.18
2019-05-07T07:46:22.389Z,11.20
2019-05-07T07:49:04.362Z,7.25
2019-05-07T07:51:36.706Z,7.40
2019-05-07T07:53:54.157Z,7.83
2019-05-07T07:56:50.172Z,9.23
2019-05-07T07:59:14.123Z,8.93
2019-05-07T08:01:47.848Z,6.90
2019-05-07T08:04:17.431Z,6.90
2019-05-07T08:06:48.518Z,7.37
2019-05-07T08:09:17.919Z,7.05
2019-05-07T08:11:47.332Z,6.37
2019-05-07T08:14:16.795Z,5.15
2019-05-07T08:16:46.179Z,9.73
2019-05-07T08:19:21.537Z,8.63
2019-05-07T08:21:46.752Z,6.95
2019-05-07T08:24:16.161Z,5.67
2019-05-07T08:26:45.626Z,5.45
2019-05-07T08:29:15.035Z,6.95
2019-05-07T08:31:49.224Z,5.85
2019-05-07T08:34:38.346Z,7.17
2019-05-07T08:37:07.817Z,9.63
2019-05-07T08:39:37.467Z,5.28
2019-05-07T08:42:06.994Z,6.00
2019-05-07T08:44:39.099Z,6.92
2019-05-07T08:47:22.855Z,7.42
2019-05-07T08:49:52.513Z,8.78
2019-05-07T08:52:41.972Z,7.85
2019-05-07T08:55:12.552Z,8.75
2019-05-07T08:57:42.251Z,4.12
2019-05-07T09:00:14.831Z,6.75
2019-05-07T09:02:44.360Z,5.42
2019-05-07T09:05:13.873Z,5.67
2019-05-07T09:07:43.347Z,6.25
2019-05-07T09:10:12.967Z,6.08
2019-05-07T09:12:42.952Z,3.83
2019-05-07T09:15:12.832Z,3.42
2019-05-07T09:17:42.469Z,4.80
2019-05-07T09:20:28.489Z,8.45
2019-05-07T09:22:57.956Z,4.67
2019-05-07T09:25:28.557Z,8.08
2019-05-07T09:27:57.945Z,4.72
2019-05-07T09:30:45.238Z,5.62
2019-05-07T09:33:16.267Z,7.03
2019-05-07T09:35:48.395Z,5.53
2019-05-07T09:38:17.844Z,5.42
2019-05-07T09:40:47.359Z,3.37
2019-05-07T09:43:16.767Z,6.17
2019-05-07T09:45:46.155Z,6.62
2019-05-07T09:48:15.688Z,5.03
2019-05-07T09:50:45.144Z,7.37
2019-05-07T09:53:14.531Z,7.35
2019-05-07T09:55:44.979Z,3.90
2019-05-07T09:58:14.515Z,7.42
2019-05-07T10:00:43.882Z,6.20
2019-05-07T10:03:13.267Z,4.95
2019-05-07T10:05:42.961Z,6.40
2019-05-07T10:08:13.068Z,5.92
2019-05-07T10:10:45.287Z,4.37
2019-05-07T10:13:16.395Z,6.10
2019-05-07T10:15:45.936Z,6.10
2019-05-07T10:18:35.342Z,4.25
2019-05-07T10:21:04.963Z,5.65
2019-05-07T10:23:34.571Z,6.30
2019-05-07T10:26:04.188Z,8.55
2019-05-07T10:28:33.631Z,4.58
2019-05-07T10:31:16.569Z,5.97
2019-05-07T10:33:46.243Z,6.20
2019-05-07T10:36:15.631Z,4.75
2019-05-07T10:38:45.090Z,6.10
2019-05-07T10:41:15.531Z,5.45
2019-05-07T10:43:44.926Z,4.35
2019-05-07T10:46:34.306Z,4.20
2019-05-07T10:49:08.115Z,7.70
2019-05-07T10:51:37.738Z,4.78
2019-05-07T10:54:07.128Z,3.67
2019-05-07T10:56:36.541Z,3.30
2019-05-07T10:59:05.939Z,4.47
2019-05-07T11:01:37.796Z,3.37
2019-05-07T11:04:07.283Z,3.00
2019-05-07T11:06:36.818Z,3.67
2019-05-07T11:09:08.154Z,3.17
2019-05-07T11:11:37.896Z,6.20
2019-05-07T11:14:07.478Z,3.98
2019-05-07T11:16:55.147Z,5.53
2019-05-07T11:19:26.999Z,4.30
2019-05-07T11:21:56.411Z,6.92
2019-05-07T11:24:25.783Z,4.83
2019-05-07T11:26:55.179Z,4.28
2019-05-07T11:29:24.563Z,5.67
2019-05-07T11:31:54.018Z,6.40
2019-05-07T11:34:23.407Z,3.45
2019-05-07T11:36:52.896Z,4.12
2019-05-07T11:39:22.720Z,4.35
2019-05-07T11:41:53.846Z,2.87
2019-05-07T11:44:24.891Z,4.58
2019-05-07T11:47:12.388Z,5.87
2019-05-07T11:49:59.599Z,3.55
2019-05-07T11:52:35.236Z,6.55
2019-05-07T11:55:03.149Z,4.15
2019-05-07T11:57:35.370Z,6.80
2019-05-07T12:00:09.694Z,3.55
2019-05-07T12:02:58.588Z,3.42
2019-05-07T12:05:27.978Z,7.55
2019-05-07T12:07:59.765Z,3.30
2019-05-07T12:10:29.156Z,4.65
2019-05-07T12:13:12.796Z,4.70
2019-05-07T12:15:43.345Z,7.28
2019-05-07T12:18:12.870Z,5.72
2019-05-07T12:20:42.406Z,3.83
2019-05-07T12:23:12.139Z,5.62
2019-05-07T12:25:42.333Z,3.67
2019-05-07T12:28:13.271Z,5.95
2019-05-07T12:31:01.031Z,4.97
2019-05-07T12:33:44.008Z,3.35
2019-05-07T12:36:15.036Z,3.90
2019-05-07T12:38:44.494Z,4.28
2019-05-07T12:41:34.002Z,5.20
2019-05-07T12:44:06.951Z,4.60
2019-05-07T12:46:36.991Z,6.45
2019-05-07T12:49:06.549Z,6.47
2019-05-07T12:51:38.090Z,11.22
2019-05-07T12:54:12.072Z,7.25
2019-05-07T12:56:43.527Z,4.53
2019-05-07T12:59:13.050Z,6.40
2019-05-07T13:02:00.455Z,4.97
2019-05-07T13:04:32.540Z,4.72
2019-05-07T13:07:11.568Z,4.72
2019-05-07T13:09:42.655Z,3.35
2019-05-07T13:12:11.781Z,4.80
2019-05-07T13:14:41.316Z,4.17
2019-05-07T13:17:12.077Z,6.80
2019-05-07T13:19:42.897Z,6.30
2019-05-07T13:22:13.014Z,6.20
2019-05-07T13:24:42.741Z,3.95
2019-05-07T13:27:12.193Z,4.90
2019-05-07T13:29:42.477Z,5.75
2019-05-07T13:32:14.993Z,3.83
2019-05-07T13:34:45.627Z,6.35
2019-05-07T13:37:17.515Z,6.42
2019-05-07T13:39:48.668Z,5.10
2019-05-07T13:42:35.889Z,6.60
2019-05-07T13:45:12.026Z,5.00
2019-05-07T13:47:41.794Z,4.17
2019-05-07T13:50:11.914Z,4.28
2019-05-07T13:52:43.386Z,4.95
2019-05-07T13:55:13.270Z,5.85
2019-05-07T13:57:43.052Z,6.15
2019-05-07T14:00:14.607Z,5.15
2019-05-07T14:02:44.108Z,4.17
2019-05-07T14:05:14.503Z,3.83
2019-05-07T14:07:44.379Z,4.28
2019-05-07T14:10:14.166Z,5.60
2019-05-07T14:12:43.619Z,5.60
2019-05-07T14:15:13.512Z,4.72
2019-05-07T14:17:43.153Z,8.10
2019-05-07T14:20:13.115Z,3.35
2019-05-07T14:22:42.692Z,9.28
2019-05-07T14:25:12.433Z,4.72
2019-05-07T14:27:42.861Z,6.03
2019-05-07T14:30:13.418Z,5.55
2019-05-07T14:32:53.384Z,2.60
2019-05-07T14:35:27.113Z,6.30
2019-05-07T14:38:03.839Z,4.62
2019-05-07T14:40:33.226Z,7.17
2019-05-07T14:43:04.247Z,4.00
2019-05-07T14:45:33.852Z,2.77
2019-05-07T14:48:03.236Z,5.00
2019-05-07T14:50:33.141Z,5.25
2019-05-07T14:53:02.908Z,4.75
2019-05-07T14:55:33.964Z,7.17
2019-05-07T14:58:03.602Z,6.20
2019-05-07T15:00:35.185Z,4.78
2019-05-07T15:03:04.453Z,3.22
2019-05-07T15:05:33.931Z,4.10
2019-05-07T15:08:10.485Z,8.00
2019-05-07T15:10:34.482Z,4.17
2019-05-07T15:13:03.935Z,4.87
2019-05-07T15:15:33.348Z,7.03
2019-05-07T15:18:06.940Z,7.05
2019-05-07T15:20:36.314Z,3.83
2019-05-07T15:23:11.954Z,5.08
2019-05-07T15:25:42.376Z,4.15
2019-05-07T15:28:12.313Z,4.75
2019-05-07T15:30:45.147Z,4.45
2019-05-07T15:33:14.569Z,6.72
2019-05-07T15:35:44.019Z,7.58
2019-05-07T15:38:13.424Z,4.95
2019-05-07T15:41:03.277Z,4.95
2019-05-07T15:43:32.703Z,5.25
2019-05-07T15:46:02.212Z,9.45
2019-05-07T15:48:45.880Z,5.42
2019-05-07T15:51:17.017Z,5.70
2019-05-07T15:53:48.279Z,5.28
2019-05-07T15:56:17.739Z,7.80
2019-05-07T15:58:47.144Z,5.55
2019-05-07T16:01:16.674Z,4.08
2019-05-07T16:03:47.858Z,6.00
2019-05-07T16:06:17.274Z,6.55
2019-05-07T16:08:49.213Z,5.33
2019-05-07T16:11:18.766Z,6.92
2019-05-07T16:14:04.905Z,4.53
2019-05-07T16:16:36.131Z,7.42
2019-05-07T16:19:12.945Z,5.20
2019-05-07T16:21:42.646Z,13.65
2019-05-07T16:24:12.291Z,8.85
2019-05-07T16:26:42.037Z,9.63
2019-05-07T16:29:13.269Z,7.83
2019-05-07T16:31:44.156Z,12.47
2019-05-07T16:34:13.711Z,8.35
2019-05-07T16:36:43.102Z,8.33
2019-05-07T16:39:12.497Z,10.90
2019-05-07T16:41:55.633Z,7.85
2019-05-07T16:44:25.036Z,5.92
2019-05-07T16:46:56.060Z,5.15
2019-05-07T16:49:25.427Z,8.70
2019-05-07T16:51:54.897Z,5.53
2019-05-07T16:54:24.353Z,8.98
2019-05-07T16:57:12.315Z,8.05
2019-05-07T16:59:42.701Z,8.53
2019-05-07T17:02:13.991Z,7.87
2019-05-07T17:05:03.124Z,10.43
2019-05-07T17:07:34.752Z,11.48
2019-05-07T17:10:08.808Z,6.80
2019-05-07T17:12:41.692Z,10.23
2019-05-07T17:15:12.416Z,7.70
2019-05-07T17:17:42.735Z,6.60
2019-05-07T17:20:12.965Z,7.58
2019-05-07T17:22:42.746Z,8.18
2019-05-07T17:25:30.412Z,7.90
2019-05-07T17:28:13.663Z,9.35
2019-05-07T17:30:43.048Z,9.83
2019-05-07T17:33:12.921Z,5.17
2019-05-07T17:35:42.584Z,6.00
2019-05-07T17:38:12.921Z,7.10
2019-05-07T17:40:42.646Z,7.87
2019-05-07T17:43:12.411Z,7.45
2019-05-07T17:45:42.921Z,10.05
2019-05-07T17:48:12.767Z,5.80
2019-05-07T17:50:43.806Z,6.37
2019-05-07T17:53:13.614Z,9.53
2019-05-07T17:55:43.002Z,12.53
2019-05-07T17:58:12.921Z,9.30
2019-05-07T18:00:45.496Z,10.18
2019-05-07T18:03:32.854Z,7.30
2019-05-07T18:06:04.745Z,8.43
2019-05-07T18:08:34.204Z,12.53
2019-05-07T18:11:16.737Z,10.93
2019-05-07T18:13:34.895Z,8.20
2019-05-07T18:16:12.232Z,7.80
2019-05-07T18:18:43.194Z,9.70
2019-05-07T18:21:12.792Z,13.58
2019-05-07T18:23:42.267Z,7.97
2019-05-07T18:26:20.609Z,7.60
2019-05-07T18:28:42.848Z,4.95
2019-05-07T18:31:15.658Z,6.67
2019-05-07T18:33:52.391Z,5.97
2019-05-07T18:36:22.667Z,6.25
2019-05-07T18:38:52.833Z,6.35
2019-05-07T18:41:22.506Z,6.10
2019-05-07T18:43:54.476Z,8.95
2019-05-07T18:46:23.011Z,8.65
2019-05-07T18:48:52.495Z,11.12
2019-05-07T18:51:21.858Z,5.30
2019-05-07T18:53:51.937Z,9.45
2019-05-07T18:56:22.122Z,11.78
2019-05-07T18:58:52.117Z,7.53
2019-05-07T19:01:24.011Z,6.20
2019-05-07T19:03:53.965Z,6.00
2019-05-07T19:06:23.374Z,9.60
2019-05-07T19:08:52.811Z,6.33
2019-05-07T19:11:22.794Z,6.20
2019-05-07T19:13:53.483Z,8.20
2019-05-07T19:16:23.466Z,7.78
2019-05-07T19:18:53.921Z,8.78
2019-05-07T19:21:24.515Z,5.60
2019-05-07T19:23:53.972Z,9.38
2019-05-07T19:26:23.446Z,5.70
2019-05-07T19:28:53.001Z,6.97
2019-05-07T19:31:22.422Z,10.30
2019-05-07T19:33:52.511Z,7.15
2019-05-07T19:36:22.410Z,11.38
2019-05-07T19:38:52.697Z,8.75
2019-05-07T19:41:36.157Z,5.00
2019-05-07T19:44:05.525Z,8.30
2019-05-07T19:46:34.933Z,6.70
2019-05-07T19:49:07.030Z,5.45
2019-05-07T19:51:36.551Z,5.17
2019-05-07T19:54:05.947Z,8.23
2019-05-07T19:56:35.420Z,8.35
2019-05-07T19:59:04.892Z,8.05
2019-05-07T20:01:36.205Z,8.58
2019-05-07T20:04:05.645Z,6.92
2019-05-07T20:06:35.044Z,10.63
2019-05-07T20:09:12.438Z,8.58
2019-05-07T20:11:42.475Z,10.60
2019-05-07T20:14:13.118Z,9.33
2019-05-07T20:16:43.049Z,5.83
2019-05-07T20:19:12.555Z,6.28
2019-05-07T20:21:43.987Z,9.60
2019-05-07T20:24:13.515Z,11.75
2019-05-07T20:26:48.417Z,13.30
2019-05-07T20:29:17.932Z,8.93
2019-05-07T20:31:47.509Z,6.67
2019-05-07T20:34:17.018Z,6.83
2019-05-07T20:36:46.459Z,11.55
2019-05-07T20:39:15.923Z,10.15
2019-05-07T20:41:45.332Z,10.80
2019-05-07T20:44:14.901Z,9.65
2019-05-07T20:46:44.610Z,7.80
2019-05-07T20:49:14.059Z,8.65
2019-05-07T20:51:43.487Z,7.87
2019-05-07T20:54:14.660Z,11.35
2019-05-07T20:56:46.713Z,9.03
2019-05-07T20:59:16.386Z,9.03
2019-05-07T21:01:45.806Z,7.45
2019-05-07T21:04:15.209Z,8.33
2019-05-07T21:06:44.595Z,8.45
2019-05-07T21:09:14.035Z,7.65
2019-05-07T21:11:43.419Z,8.23
2019-05-07T21:14:13.094Z,8.73
2019-05-07T21:16:42.673Z,10.88
2019-05-07T21:19:12.878Z,10.25
2019-05-07T21:21:42.437Z,7.37
2019-05-07T21:24:13.242Z,6.33
2019-05-07T21:26:42.704Z,10.48
2019-05-07T21:29:13.814Z,10.82
2019-05-07T21:31:43.464Z,9.65
2019-05-07T21:34:12.990Z,10.80
2019-05-07T21:36:43.363Z,11.48
2019-05-07T21:39:14.002Z,7.53
2019-05-07T21:41:43.404Z,13.22
2019-05-07T21:44:12.806Z,10.35
2019-05-07T21:46:42.708Z,6.12
2019-05-07T21:49:12.478Z,9.20
2019-05-07T21:51:41.978Z,10.30
2019-05-07T21:54:25.113Z,8.85
2019-05-07T21:57:02.133Z,8.83
2019-05-07T21:59:36.218Z,12.45
2019-05-07T22:02:08.188Z,9.08
2019-05-07T22:04:37.970Z,10.90
2019-05-07T22:07:07.449Z,10.50
2019-05-07T22:09:36.835Z,8.88
2019-05-07T22:12:06.293Z,8.80
2019-05-07T22:14:35.697Z,10.05
2019-05-07T22:17:05.579Z,7.87
2019-05-07T22:19:34.975Z,11.00
2019-05-07T22:22:04.495Z,9.45
2019-05-07T22:24:33.885Z,8.28
2019-05-07T22:27:04.279Z,8.55
2019-05-07T22:29:33.803Z,7.42
2019-05-07T22:32:04.967Z,11.40
2019-05-07T22:34:36.079Z,6.47
2019-05-07T22:37:06.302Z,7.70
2019-05-07T22:39:40.112Z,6.50
2019-05-07T22:42:19.627Z,7.92
2019-05-07T22:45:03.380Z,8.30
2019-05-07T22:47:33.916Z,6.90
2019-05-07T22:50:03.843Z,7.97
2019-05-07T22:52:33.231Z,8.23
2019-05-07T22:55:02.636Z,10.28
2019-05-07T22:57:33.674Z,11.97
2019-05-07T23:00:04.854Z,6.90
2019-05-07T23:02:35.968Z,6.10
2019-05-07T23:05:06.704Z,8.23
2019-05-07T23:07:36.102Z,6.78
2019-05-07T23:10:05.944Z,9.65
2019-05-07T23:12:35.475Z,9.20
2019-05-07T23:15:06.987Z,8.80
2019-05-07T23:17:36.468Z,8.90
2019-05-07T23:20:07.283Z,8.73
2019-05-07T23:22:36.704Z,8.83
2019-05-07T23:25:07.025Z,9.85
2019-05-07T23:27:36.487Z,7.10
2019-05-07T23:30:06.330Z,6.75
2019-05-07T23:32:35.794Z,7.87
2019-05-07T23:35:05.427Z,7.70
2019-05-07T23:37:34.807Z,8.28
2019-05-07T23:40:14.027Z,7.47
2019-05-07T23:42:45.074Z,7.87
2019-05-07T23:45:14.519Z,8.43
2019-05-07T23:47:44.967Z,6.25
2019-05-07T23:50:14.348Z,7.50
2019-05-07T23:52:44.166Z,8.98
2019-05-07T23:55:14.914Z,11.68
2019-05-07T23:57:44.297Z,8.70
